DAL1825 KJFK-MMUN
Flight info
| Callsign | DAL1825 |
|---|---|
| Flight time | N/A |
| Altitude | 34000 |
| Route | RBV Q430 COPES Q75 SHRIL/N0455F340 Q75 ENEME EVANZ KNOST CIGAR M219 NAVVL L465 SHARQ UM463 WALKY UB879 NOSAT CUN |
| Aircraft | A321/M-VGDW/C |
Departure
| Time | N/A |
|---|---|
| Airport | John F. Kennedy International Airport (KJFK) |
Arrival
| Time | 2026-04-29 00:42 |
|---|---|
| Airport | Cancún International Airport (MMUN) |
| Time | Latitude | Longitude | Altitude | Speed | Heading |
|---|---|---|---|---|---|
| 2026-04-28 23:54 | 22.00406 | -85.92339 | 21643 ft | 448 kts | 236° |
| 2026-04-28 23:55 | 21.98520 | -85.95034 | 21342 ft | 442 kts | 235° |
| 2026-04-28 23:55 | 21.97917 | -85.95893 | 21267 ft | 442 kts | 235° |
| 2026-04-28 23:55 | 21.95893 | -85.98504 | 21040 ft | 443 kts | 227° |
| 2026-04-28 23:55 | 21.93626 | -86.00704 | 20822 ft | 434 kts | 223° |
| 2026-04-28 23:56 | 21.91383 | -86.02811 | 20601 ft | 422 kts | 223° |
| 2026-04-28 23:56 | 21.89189 | -86.04870 | 20389 ft | 416 kts | 223° |
| 2026-04-28 23:56 | 21.87020 | -86.06907 | 20176 ft | 413 kts | 223° |
| 2026-04-28 23:56 | 21.84859 | -86.08941 | 19961 ft | 412 kts | 223° |
| 2026-04-28 23:57 | 21.82712 | -86.10968 | 19753 ft | 410 kts | 223° |
| 2026-04-28 23:57 | 21.80570 | -86.12992 | 19546 ft | 409 kts | 223° |
| 2026-04-28 23:57 | 21.78432 | -86.15005 | 19336 ft | 408 kts | 223° |
| 2026-04-28 23:57 | 21.77709 | -86.15685 | 19267 ft | 408 kts | 223° |
| 2026-04-28 23:58 | 21.75476 | -86.17783 | 19048 ft | 407 kts | 223° |
| 2026-04-28 23:58 | 21.73350 | -86.19780 | 18853 ft | 406 kts | 223° |
| 2026-04-28 23:58 | 21.71226 | -86.21773 | 18641 ft | 404 kts | 223° |
| 2026-04-28 23:58 | 21.69129 | -86.23739 | 18413 ft | 393 kts | 223° |
| 2026-04-28 23:59 | 21.68441 | -86.24382 | 18323 ft | 385 kts | 223° |
| 2026-04-28 23:59 | 21.67070 | -86.25663 | 18146 ft | 371 kts | 223° |
| 2026-04-28 23:59 | 21.65148 | -86.27466 | 17902 ft | 365 kts | 223° |
| 2026-04-28 23:59 | 21.63248 | -86.29251 | 17633 ft | 360 kts | 223° |
| 2026-04-29 00:00 | 21.61370 | -86.31014 | 17385 ft | 357 kts | 223° |
| 2026-04-29 00:00 | 21.60665 | -86.31677 | 17300 ft | 357 kts | 223° |
| 2026-04-29 00:00 | 21.58802 | -86.33426 | 17047 ft | 355 kts | 223° |
| 2026-04-29 00:00 | 21.56948 | -86.35167 | 16802 ft | 353 kts | 223° |
| 2026-04-29 00:01 | 21.55136 | -86.36867 | 16559 ft | 352 kts | 223° |
| 2026-04-29 00:01 | 21.53886 | -86.38038 | 16393 ft | 350 kts | 223° |
| 2026-04-29 00:01 | 21.52549 | -86.39223 | 16220 ft | 350 kts | 216° |
| 2026-04-29 00:01 | 21.50531 | -86.40680 | 15969 ft | 349 kts | 214° |
| 2026-04-29 00:02 | 21.48543 | -86.42098 | 15739 ft | 347 kts | 214° |
| 2026-04-29 00:02 | 21.47108 | -86.43122 | 15569 ft | 346 kts | 214° |
| 2026-04-29 00:02 | 21.45110 | -86.44548 | 15330 ft | 345 kts | 214° |
| 2026-04-29 00:02 | 21.43119 | -86.45972 | 15104 ft | 343 kts | 214° |
| 2026-04-29 00:03 | 21.42660 | -86.46300 | 15055 ft | 343 kts | 214° |
| 2026-04-29 00:03 | 21.40041 | -86.48172 | 14745 ft | 340 kts | 214° |
| 2026-04-29 00:03 | 21.38770 | -86.49080 | 14599 ft | 339 kts | 214° |
| 2026-04-29 00:03 | 21.36895 | -86.50418 | 14367 ft | 338 kts | 214° |
| 2026-04-29 00:04 | 21.34944 | -86.51811 | 14084 ft | 338 kts | 214° |
| 2026-04-29 00:04 | 21.34308 | -86.52265 | 13935 ft | 339 kts | 214° |
| 2026-04-29 00:04 | 21.32285 | -86.53710 | 13428 ft | 341 kts | 213° |
| 2026-04-29 00:04 | 21.30324 | -86.55112 | 12912 ft | 334 kts | 213° |
| 2026-04-29 00:05 | 21.29087 | -86.55997 | 12593 ft | 328 kts | 213° |
| 2026-04-29 00:05 | 21.27800 | -86.56919 | 12261 ft | 325 kts | 213° |
| 2026-04-29 00:05 | 21.26555 | -86.57810 | 11936 ft | 322 kts | 213° |
| 2026-04-29 00:05 | 21.24805 | -86.59062 | 11506 ft | 319 kts | 213° |
| 2026-04-29 00:06 | 21.22969 | -86.60371 | 11029 ft | 315 kts | 212° |
| 2026-04-29 00:06 | 21.21150 | -86.61668 | 10571 ft | 313 kts | 212° |
| 2026-04-29 00:06 | 21.19348 | -86.62954 | 10108 ft | 309 kts | 212° |
| 2026-04-29 00:06 | 21.17569 | -86.64223 | 9622 ft | 306 kts | 212° |
| 2026-04-29 00:07 | 21.16971 | -86.64649 | 9451 ft | 305 kts | 212° |
| 2026-04-29 00:07 | 21.16821 | -86.64756 | 9406 ft | 304 kts | 212° |
| 2026-04-29 00:07 | 21.15310 | -86.65856 | 8991 ft | 303 kts | 212° |
| 2026-04-29 00:08 | 21.13569 | -86.67107 | 8492 ft | 299 kts | 211° |
| 2026-04-29 00:08 | 21.11844 | -86.68333 | 8006 ft | 296 kts | 211° |
| 2026-04-29 00:08 | 21.10137 | -86.69542 | 7526 ft | 292 kts | 211° |
| 2026-04-29 00:08 | 21.08992 | -86.70372 | 7194 ft | 290 kts | 216° |
| 2026-04-29 00:09 | 21.07760 | -86.72028 | 6808 ft | 283 kts | 249° |
| 2026-04-29 00:09 | 21.07501 | -86.73650 | 6682 ft | 270 kts | 275° |
| 2026-04-29 00:09 | 21.08050 | -86.75516 | 6550 ft | 257 kts | 303° |
| 2026-04-29 00:09 | 21.09010 | -86.77096 | 6394 ft | 256 kts | 305° |
| 2026-04-29 00:10 | 21.10003 | -86.78677 | 6207 ft | 255 kts | 306° |
| 2026-04-29 00:10 | 21.10992 | -86.80242 | 6041 ft | 255 kts | 306° |
| 2026-04-29 00:10 | 21.11766 | -86.81468 | 5927 ft | 255 kts | 306° |
| 2026-04-29 00:10 | 21.12760 | -86.83046 | 5776 ft | 255 kts | 306° |
| 2026-04-29 00:11 | 21.13752 | -86.84621 | 5628 ft | 255 kts | 305° |
| 2026-04-29 00:11 | 21.14740 | -86.86197 | 5483 ft | 255 kts | 305° |
| 2026-04-29 00:11 | 21.16102 | -86.88378 | 5276 ft | 255 kts | 305° |
| 2026-04-29 00:12 | 21.17086 | -86.89952 | 5132 ft | 254 kts | 305° |
| 2026-04-29 00:12 | 21.18069 | -86.91524 | 4988 ft | 254 kts | 305° |
| 2026-04-29 00:12 | 21.19053 | -86.93096 | 4845 ft | 254 kts | 305° |
| 2026-04-29 00:12 | 21.19701 | -86.94134 | 4748 ft | 253 kts | 305° |
| 2026-04-29 00:13 | 21.20039 | -86.94674 | 4704 ft | 253 kts | 305° |
| 2026-04-29 00:13 | 21.21011 | -86.96233 | 4540 ft | 247 kts | 305° |
| 2026-04-29 00:13 | 21.21942 | -86.97731 | 4388 ft | 237 kts | 304° |
| 2026-04-29 00:13 | 21.22851 | -86.99192 | 4235 ft | 235 kts | 304° |
| 2026-04-29 00:14 | 21.23380 | -87.00040 | 4149 ft | 233 kts | 305° |
| 2026-04-29 00:14 | 21.24078 | -87.01161 | 4040 ft | 232 kts | 304° |
| 2026-04-29 00:14 | 21.24972 | -87.02596 | 3885 ft | 232 kts | 304° |
| 2026-04-29 00:14 | 21.25866 | -87.04031 | 3746 ft | 231 kts | 304° |
| 2026-04-29 00:15 | 21.26726 | -87.05410 | 3609 ft | 231 kts | 304° |
| 2026-04-29 00:15 | 21.27318 | -87.06359 | 3506 ft | 230 kts | 304° |
| 2026-04-29 00:15 | 21.27923 | -87.07331 | 3413 ft | 230 kts | 303° |
| 2026-04-29 00:15 | 21.28524 | -87.08896 | 3264 ft | 228 kts | 272° |
| 2026-04-29 00:16 | 21.28220 | -87.10516 | 3123 ft | 222 kts | 236° |
| 2026-04-29 00:16 | 21.27162 | -87.11657 | 3038 ft | 215 kts | 207° |
| 2026-04-29 00:16 | 21.26727 | -87.11939 | 3007 ft | 215 kts | 207° |
| 2026-04-29 00:16 | 21.25449 | -87.12793 | 3008 ft | 215 kts | 204° |
| 2026-04-29 00:17 | 21.24088 | -87.13296 | 3014 ft | 202 kts | 184° |
| 2026-04-29 00:17 | 21.22713 | -87.13290 | 3017 ft | 197 kts | 166° |
| 2026-04-29 00:17 | 21.21439 | -87.12819 | 3009 ft | 192 kts | 147° |
| 2026-04-29 00:17 | 21.20717 | -87.12284 | 2999 ft | 189 kts | 136° |
| 2026-04-29 00:18 | 21.20099 | -87.11567 | 3004 ft | 187 kts | 124° |
| 2026-04-29 00:18 | 21.19390 | -87.10436 | 2995 ft | 179 kts | 122° |
| 2026-04-29 00:18 | 21.18703 | -87.09333 | 3003 ft | 177 kts | 122° |
| 2026-04-29 00:18 | 21.18034 | -87.08259 | 2998 ft | 172 kts | 122° |
| 2026-04-29 00:19 | 21.17788 | -87.07864 | 3000 ft | 170 kts | 122° |
| 2026-04-29 00:19 | 21.17138 | -87.06822 | 3012 ft | 166 kts | 122° |
| 2026-04-29 00:19 | 21.16498 | -87.05796 | 3007 ft | 165 kts | 122° |
| 2026-04-29 00:19 | 21.15861 | -87.04773 | 3013 ft | 164 kts | 122° |
| 2026-04-29 00:20 | 21.15228 | -87.03758 | 3030 ft | 164 kts | 122° |
| 2026-04-29 00:20 | 21.14996 | -87.03387 | 3023 ft | 164 kts | 122° |
| 2026-04-29 00:20 | 21.14361 | -87.02369 | 2979 ft | 165 kts | 122° |
| 2026-04-29 00:20 | 21.13739 | -87.01372 | 2826 ft | 153 kts | 122° |
| 2026-04-29 00:21 | 21.13178 | -87.00474 | 2659 ft | 138 kts | 122° |
| 2026-04-29 00:21 | 21.12905 | -87.00037 | 2582 ft | 133 kts | 122° |
| 2026-04-29 00:21 | 21.12491 | -86.99374 | 2443 ft | 130 kts | 121° |
| 2026-04-29 00:21 | 21.11992 | -86.98573 | 2281 ft | 129 kts | 121° |
| 2026-04-29 00:22 | 21.11495 | -86.97778 | 2120 ft | 128 kts | 121° |
| 2026-04-29 00:22 | 21.11166 | -86.97251 | 2009 ft | 129 kts | 122° |
| 2026-04-29 00:22 | 21.10852 | -86.96748 | 1909 ft | 129 kts | 123° |
| 2026-04-29 00:22 | 21.10353 | -86.95949 | 1745 ft | 129 kts | 123° |
| 2026-04-29 00:23 | 21.09855 | -86.95153 | 1581 ft | 129 kts | 123° |
| 2026-04-29 00:23 | 21.09349 | -86.94363 | 1416 ft | 128 kts | 124° |
| 2026-04-29 00:23 | 21.09118 | -86.94008 | 1339 ft | 128 kts | 123° |
| 2026-04-29 00:23 | 21.08674 | -86.93288 | 1175 ft | 128 kts | 123° |
| 2026-04-29 00:24 | 21.08185 | -86.92489 | 994 ft | 129 kts | 120° |
| 2026-04-29 00:24 | 21.07755 | -86.91768 | 843 ft | 131 kts | 120° |
| 2026-04-29 00:24 | 21.07207 | -86.90983 | 728 ft | 133 kts | 123° |
| 2026-04-29 00:24 | 21.06708 | -86.90175 | 629 ft | 128 kts | 121° |
| 2026-04-29 00:25 | 21.06240 | -86.89347 | 390 ft | 132 kts | 126° |
| 2026-04-29 00:25 | 21.05762 | -86.88596 | 163 ft | 132 kts | 125° |
| 2026-04-29 00:25 | 21.05258 | -86.87817 | 73 ft | 137 kts | 126° |
| 2026-04-29 00:25 | 21.04697 | -86.86927 | 647 ft | 147 kts | 123° |
| 2026-04-29 00:26 | 21.04150 | -86.86015 | 1381 ft | 146 kts | 123° |
| 2026-04-29 00:26 | 21.03722 | -86.85002 | 1883 ft | 163 kts | 94° |
| 2026-04-29 00:26 | 21.04186 | -86.83847 | 2035 ft | 187 kts | 44° |
| 2026-04-29 00:26 | 21.05304 | -86.83094 | 2306 ft | 198 kts | 34° |
| 2026-04-29 00:27 | 21.06122 | -86.82602 | 2555 ft | 201 kts | 30° |
| 2026-04-29 00:27 | 21.07022 | -86.82360 | 2804 ft | 207 kts | 5° |
| 2026-04-29 00:27 | 21.08435 | -86.82760 | 2995 ft | 219 kts | 330° |
| 2026-04-29 00:27 | 21.09604 | -86.83897 | 3033 ft | 235 kts | 314° |
| 2026-04-29 00:28 | 21.10702 | -86.85217 | 3001 ft | 238 kts | 312° |
| 2026-04-29 00:28 | 21.11792 | -86.86556 | 3004 ft | 239 kts | 312° |
| 2026-04-29 00:28 | 21.12178 | -86.87030 | 2996 ft | 239 kts | 312° |
| 2026-04-29 00:28 | 21.13269 | -86.88371 | 3016 ft | 239 kts | 312° |
| 2026-04-29 00:29 | 21.14366 | -86.89713 | 3014 ft | 239 kts | 312° |
| 2026-04-29 00:29 | 21.15468 | -86.91053 | 3018 ft | 239 kts | 312° |
| 2026-04-29 00:29 | 21.15825 | -86.91487 | 3019 ft | 240 kts | 312° |
| 2026-04-29 00:29 | 21.16976 | -86.92885 | 3019 ft | 239 kts | 312° |
| 2026-04-29 00:30 | 21.18067 | -86.94227 | 3016 ft | 239 kts | 312° |
| 2026-04-29 00:30 | 21.19139 | -86.95557 | 3013 ft | 239 kts | 312° |
| 2026-04-29 00:30 | 21.19873 | -86.96470 | 3010 ft | 239 kts | 312° |
| 2026-04-29 00:30 | 21.20418 | -86.97147 | 3016 ft | 239 kts | 312° |
| 2026-04-29 00:31 | 21.21508 | -86.98497 | 3014 ft | 239 kts | 312° |
| 2026-04-29 00:31 | 21.22593 | -86.99838 | 3007 ft | 239 kts | 312° |
| 2026-04-29 00:31 | 21.23694 | -87.01179 | 3008 ft | 240 kts | 312° |
| 2026-04-29 00:31 | 21.24802 | -87.02516 | 3004 ft | 240 kts | 312° |
| 2026-04-29 00:32 | 21.25553 | -87.03419 | 3005 ft | 240 kts | 312° |
| 2026-04-29 00:32 | 21.26317 | -87.04337 | 3003 ft | 240 kts | 312° |
| 2026-04-29 00:32 | 21.27422 | -87.05674 | 3010 ft | 240 kts | 312° |
| 2026-04-29 00:32 | 21.28397 | -87.07128 | 2995 ft | 242 kts | 291° |
| 2026-04-29 00:33 | 21.28610 | -87.08866 | 2999 ft | 231 kts | 257° |
| 2026-04-29 00:33 | 21.28294 | -87.09861 | 3007 ft | 224 kts | 236° |
| 2026-04-29 00:33 | 21.27643 | -87.10695 | 3007 ft | 219 kts | 216° |
| 2026-04-29 00:33 | 21.26631 | -87.11505 | 3007 ft | 217 kts | 210° |
| 2026-04-29 00:34 | 21.25368 | -87.12385 | 2997 ft | 216 kts | 204° |
| 2026-04-29 00:34 | 21.23988 | -87.12909 | 3003 ft | 205 kts | 184° |
| 2026-04-29 00:34 | 21.22602 | -87.12926 | 3011 ft | 196 kts | 166° |
| 2026-04-29 00:34 | 21.22151 | -87.12826 | 3012 ft | 196 kts | 160° |
| 2026-04-29 00:35 | 21.20915 | -87.12239 | 3028 ft | 191 kts | 143° |
| 2026-04-29 00:35 | 21.19943 | -87.11297 | 3014 ft | 188 kts | 126° |
| 2026-04-29 00:35 | 21.19209 | -87.10146 | 3011 ft | 187 kts | 122° |
| 2026-04-29 00:35 | 21.18487 | -87.08986 | 3002 ft | 187 kts | 122° |
| 2026-04-29 00:36 | 21.17769 | -87.07834 | 3010 ft | 187 kts | 122° |
| 2026-04-29 00:36 | 21.17535 | -87.07458 | 3009 ft | 186 kts | 122° |
| 2026-04-29 00:36 | 21.16816 | -87.06307 | 3001 ft | 172 kts | 122° |
| 2026-04-29 00:36 | 21.16162 | -87.05257 | 3015 ft | 168 kts | 122° |
| 2026-04-29 00:37 | 21.15518 | -87.04224 | 3029 ft | 166 kts | 122° |
| 2026-04-29 00:37 | 21.15096 | -87.03548 | 3020 ft | 166 kts | 121° |
| 2026-04-29 00:37 | 21.14702 | -87.02916 | 3006 ft | 160 kts | 121° |
| 2026-04-29 00:37 | 21.14097 | -87.01947 | 2922 ft | 157 kts | 121° |
| 2026-04-29 00:38 | 21.13495 | -87.00982 | 2763 ft | 155 kts | 121° |
| 2026-04-29 00:38 | 21.12901 | -87.00029 | 2586 ft | 153 kts | 121° |
| 2026-04-29 00:38 | 21.12314 | -86.99089 | 2387 ft | 148 kts | 121° |
| 2026-04-29 00:38 | 21.11765 | -86.98211 | 2208 ft | 138 kts | 121° |
| 2026-04-29 00:39 | 21.11239 | -86.97368 | 2033 ft | 135 kts | 121° |
| 2026-04-29 00:39 | 21.10966 | -86.96931 | 1948 ft | 134 kts | 122° |
| 2026-04-29 00:39 | 21.10448 | -86.96101 | 1770 ft | 134 kts | 122° |
| 2026-04-29 00:39 | 21.09926 | -86.95265 | 1601 ft | 135 kts | 121° |
| 2026-04-29 00:40 | 21.09402 | -86.94426 | 1421 ft | 136 kts | 121° |
| 2026-04-29 00:40 | 21.08876 | -86.93585 | 1250 ft | 136 kts | 121° |
| 2026-04-29 00:40 | 21.08684 | -86.93277 | 1181 ft | 136 kts | 121° |
| 2026-04-29 00:40 | 21.08158 | -86.92435 | 1008 ft | 136 kts | 121° |
| 2026-04-29 00:41 | 21.07632 | -86.91596 | 828 ft | 135 kts | 122° |
| 2026-04-29 00:41 | 21.07284 | -86.91043 | 714 ft | 135 kts | 122° |
| 2026-04-29 00:41 | 21.06940 | -86.90484 | 625 ft | 134 kts | 122° |
| 2026-04-29 00:41 | 21.06408 | -86.89623 | 421 ft | 136 kts | 123° |
| 2026-04-29 00:42 | 21.05878 | -86.88794 | 219 ft | 135 kts | 123° |
| 2026-04-29 00:42 | 21.05375 | -86.87977 | 46 ft | 133 kts | 123° |
| 2026-04-29 00:42 | 21.04955 | -86.87307 | 32 ft | 69 kts | 123° |
| 2026-04-29 00:42 | 21.04894 | -86.87208 | 32 ft | 45 kts | 123° |
| 2026-04-29 00:43 | 21.04792 | -86.87067 | 31 ft | 17 kts | 130° |
| 2026-04-29 00:43 | 21.04729 | -86.86950 | 31 ft | 23 kts | 123° |
| 2026-04-29 00:43 | 21.04622 | -86.86778 | 32 ft | 29 kts | 124° |
| 2026-04-29 00:43 | 21.04513 | -86.86605 | 32 ft | 27 kts | 123° |
| 2026-04-29 00:44 | 21.04407 | -86.86469 | 30 ft | 23 kts | 136° |
| 2026-04-29 00:44 | 21.04297 | -86.86392 | 31 ft | 15 kts | 151° |
| 2026-04-29 00:44 | 21.04231 | -86.86357 | 36 ft | 7 kts | 155° |
| 2026-04-29 00:44 | 21.04218 | -86.86350 | 37 ft | 7 kts | 153° |
| 2026-04-29 00:45 | 21.04128 | -86.86300 | 43 ft | 16 kts | 151° |
| 2026-04-29 00:45 | 21.04079 | -86.86242 | 44 ft | 9 kts | 127° |
| 2026-04-29 00:45 | 21.04029 | -86.86223 | 45 ft | 8 kts | 200° |
| 2026-04-29 00:45 | 21.03985 | -86.86255 | 48 ft | 5 kts | 214° |
| 2026-04-29 00:46 | 21.03955 | -86.86276 | 50 ft | 12 kts | 213° |
| 2026-04-29 00:46 | 21.03860 | -86.86343 | 51 ft | 16 kts | 212° |
| 2026-04-29 00:46 | 21.03757 | -86.86413 | 43 ft | 20 kts | 212° |
| 2026-04-29 00:46 | 21.03627 | -86.86505 | 31 ft | 21 kts | 212° |
| 2026-04-29 00:47 | 21.03565 | -86.86561 | 29 ft | 7 kts | 245° |
| 2026-04-29 00:47 | 21.03564 | -86.86577 | 29 ft | 6 kts | 272° |
| 2026-04-29 00:47 | 21.03578 | -86.86616 | 29 ft | 7 kts | 296° |
| 2026-04-29 00:47 | 21.03564 | -86.86687 | 29 ft | 11 kts | 222° |
| 2026-04-29 00:48 | 21.03547 | -86.86702 | 29 ft | 3 kts | 223° |
| 2026-04-29 00:48 | 21.03563 | -86.86746 | 29 ft | 6 kts | 306° |
| 2026-04-29 00:48 | 21.03569 | -86.86754 | 29 ft | 3 kts | 309° |
| 2026-04-29 00:48 | 21.03579 | -86.86768 | 29 ft | 2 kts | 308° |
| 2026-04-29 00:49 | 21.03588 | -86.86780 | 29 ft | 2 kts | 308° |
| 2026-04-29 00:49 | 21.03590 | -86.86783 | 29 ft | 0 kts | 309° |
| 2026-04-29 00:50 | 21.03591 | -86.86784 | 29 ft | 0 kts | 309° |